createdAt,value
2019-01-22T00:01:51.475Z,-4.50
2019-01-22T00:04:21.139Z,-4.50
2019-01-22T00:06:50.826Z,-4.40
2019-01-22T00:09:20.555Z,-4.40
2019-01-22T00:11:50.167Z,-4.40
2019-01-22T00:14:20.022Z,-4.40
2019-01-22T00:16:50.906Z,-4.40
2019-01-22T00:19:20.582Z,-4.40
2019-01-22T00:21:50.262Z,-4.40
2019-01-22T00:24:19.770Z,-4.40
2019-01-22T00:26:49.574Z,-4.50
2019-01-22T00:29:19.318Z,-4.50
2019-01-22T00:31:48.874Z,-4.50
2019-01-22T00:34:18.507Z,-4.50
2019-01-22T00:36:48.110Z,-4.60
2019-01-22T00:39:17.865Z,-4.60
2019-01-22T00:41:47.461Z,-4.60
2019-01-22T00:44:17.107Z,-4.60
2019-01-22T00:46:46.710Z,-4.60
2019-01-22T00:49:16.355Z,-4.60
2019-01-22T00:51:46.155Z,-4.30
2019-01-22T00:54:15.898Z,-4.60
2019-01-22T00:56:47.951Z,-4.70
2019-01-22T00:59:16.866Z,-4.70
2019-01-22T01:01:46.446Z,-4.70
2019-01-22T01:04:16.112Z,-4.70
2019-01-22T01:06:45.844Z,-4.70
2019-01-22T01:09:15.497Z,-4.70
2019-01-22T01:11:45.011Z,-4.70
2019-01-22T01:14:14.610Z,-4.80
2019-01-22T01:16:44.113Z,-4.80
2019-01-22T01:19:14.062Z,-4.80
2019-01-22T01:21:43.709Z,-4.80
2019-01-22T01:24:13.298Z,-4.80
2019-01-22T01:26:42.892Z,-4.80
2019-01-22T01:29:12.662Z,-4.80
2019-01-22T01:31:42.614Z,-4.80
2019-01-22T01:34:12.225Z,-4.80
2019-01-22T01:36:41.863Z,-4.80
2019-01-22T01:39:11.421Z,-4.80
2019-01-22T01:41:41.083Z,-4.80
2019-01-22T01:44:10.693Z,-4.80
2019-01-22T01:46:40.203Z,-4.80
2019-01-22T01:49:09.794Z,-4.90
2019-01-22T01:51:39.476Z,-4.90
2019-01-22T01:54:09.141Z,-4.80
2019-01-22T01:56:38.648Z,-4.80
2019-01-22T01:59:08.526Z,-4.80
2019-01-22T02:01:38.046Z,-4.80
2019-01-22T02:04:07.762Z,-4.90
2019-01-22T02:06:37.561Z,-4.90
2019-01-22T02:09:07.295Z,-5.00
2019-01-22T02:11:37.094Z,-5.00
2019-01-22T02:14:06.883Z,-5.00
2019-01-22T02:16:42.374Z,-5.00
2019-01-22T02:19:26.070Z,-5.00
2019-01-22T02:22:01.687Z,-5.00
2019-01-22T02:24:40.496Z,-5.00
2019-01-22T02:27:13.194Z,-5.00
2019-01-22T02:29:45.772Z,-5.00
2019-01-22T02:32:43.868Z,-5.00
2019-01-22T02:35:16.467Z,-5.00
2019-01-22T02:37:55.286Z,-5.00
2019-01-22T02:40:39.780Z,-5.00
2019-01-22T02:43:14.887Z,-5.00
2019-01-22T02:46:02.783Z,-5.00
2019-01-22T02:48:37.918Z,-5.00
2019-01-22T02:51:22.127Z,-5.10
2019-01-22T02:53:54.770Z,-5.00
2019-01-22T02:56:41.801Z,-5.00
2019-01-22T02:59:42.231Z,-5.00
2019-01-22T03:02:29.482Z,-4.90
2019-01-22T03:05:02.078Z,-5.00
2019-01-22T03:07:37.528Z,-5.00
2019-01-22T03:10:18.704Z,-4.90
2019-01-22T03:13:08.941Z,-4.90
2019-01-22T03:15:46.807Z,-4.90
2019-01-22T03:21:34.783Z,-4.90
2019-01-22T03:24:43.119Z,-4.80
2019-01-22T03:27:51.350Z,-4.80
2019-01-22T03:30:59.552Z,-4.70
2019-01-22T03:34:08.219Z,-4.70
2019-01-22T03:37:17.787Z,-4.60
2019-01-22T03:40:27.515Z,-4.60
2019-01-22T03:43:29.027Z,-4.70
2019-01-22T03:46:37.538Z,-4.80
2019-01-22T03:50:10.504Z,-4.70
2019-01-22T03:53:18.662Z,-4.70
2019-01-22T03:56:26.934Z,-4.70
2019-01-22T03:59:15.851Z,-4.70
2019-01-22T04:02:26.617Z,-4.70
2019-01-22T04:05:09.146Z,-4.70
2019-01-22T04:07:58.142Z,-4.70
2019-01-22T04:10:47.959Z,-4.70
2019-01-22T04:13:56.319Z,-4.70
2019-01-22T04:16:45.178Z,-4.70
2019-01-22T04:19:34.089Z,-4.70
2019-01-22T04:22:43.756Z,-4.70
2019-01-22T04:25:51.967Z,-4.60
2019-01-22T04:29:00.227Z,-4.70
2019-01-22T04:32:11.475Z,-4.70
2019-01-22T04:35:40.778Z,-4.70
2019-01-22T04:41:38.405Z,-4.70
2019-01-22T04:44:47.975Z,-4.80
2019-01-22T04:47:56.248Z,-4.80
2019-01-22T04:51:04.505Z,-4.80
2019-01-22T04:53:55.284Z,-4.80
2019-01-22T04:57:03.574Z,-4.80
2019-01-22T05:00:13.531Z,-4.80
2019-01-22T05:03:35.160Z,-4.70
2019-01-22T05:06:43.331Z,-4.70
2019-01-22T05:09:51.602Z,-4.70
2019-01-22T05:12:59.879Z,-4.80
2019-01-22T05:20:13.681Z,-4.70
2019-01-22T05:23:22.098Z,-4.70
2019-01-22T05:26:30.505Z,-4.70
2019-01-22T05:29:21.185Z,-4.60
2019-01-22T05:32:29.425Z,-4.50
2019-01-22T05:35:37.705Z,-4.50
2019-01-22T05:38:46.058Z,-4.60
2019-01-22T05:41:54.324Z,-4.60
2019-01-22T05:45:02.507Z,-4.60
2019-01-22T05:48:13.383Z,-4.50
2019-01-22T05:51:39.979Z,-4.60
2019-01-22T05:54:48.183Z,-4.70
2019-01-22T06:01:32.572Z,-4.70
2019-01-22T06:04:53.359Z,-4.70
2019-01-22T06:08:01.596Z,-4.80
2019-01-22T06:11:09.854Z,-4.80
2019-01-22T06:14:18.228Z,-4.80
2019-01-22T06:17:51.139Z,-4.80
2019-01-22T06:24:34.675Z,-4.80
2019-01-22T06:27:44.438Z,-4.90
2019-01-22T06:30:52.705Z,-4.90
2019-01-22T06:34:02.362Z,-5.00
2019-01-22T06:37:12.132Z,-5.00
2019-01-22T06:40:20.307Z,-5.00
2019-01-22T06:43:46.075Z,-4.90
2019-01-22T06:46:33.207Z,-4.80
2019-01-22T06:49:26.363Z,-4.80
2019-01-22T06:55:52.681Z,-4.70
2019-01-22T06:59:24.800Z,-4.80
2019-01-22T07:02:50.738Z,-4.80
2019-01-22T07:05:35.188Z,-4.90
2019-01-22T07:08:43.518Z,-4.90
2019-01-22T07:16:16.292Z,-4.90
2019-01-22T07:23:15.042Z,-4.70
2019-01-22T07:26:23.281Z,-4.60
2019-01-22T07:29:32.939Z,-4.50
2019-01-22T07:32:41.172Z,-4.50
2019-01-22T07:35:49.362Z,-4.50
2019-01-22T07:42:36.509Z,-4.50
2019-01-22T07:45:46.158Z,-4.40
2019-01-22T07:48:54.430Z,-4.40
2019-01-22T07:52:04.115Z,-4.30
2019-01-22T07:55:12.316Z,-4.20
2019-01-22T07:58:23.596Z,-4.00
2019-01-22T08:01:51.226Z,-3.90
2019-01-22T08:08:32.123Z,-3.60
2019-01-22T08:11:40.479Z,-3.30
2019-01-22T08:18:03.932Z,-3.20
2019-01-22T08:21:12.183Z,-3.10
2019-01-22T08:24:20.470Z,-3.00
2019-01-22T08:27:30.358Z,-3.00
2019-01-22T08:30:38.708Z,-2.90
2019-01-22T08:33:46.991Z,-2.80
2019-01-22T08:36:55.228Z,-2.70
2019-01-22T08:39:44.223Z,-2.60
2019-01-22T08:42:52.395Z,-2.40
2019-01-22T08:46:02.024Z,-2.20
2019-01-22T08:49:11.833Z,-1.90
2019-01-22T08:52:20.082Z,-1.70
2019-01-22T08:55:52.473Z,-1.40
2019-01-22T08:59:02.198Z,-1.30
2019-01-22T09:01:46.119Z,-1.10
2019-01-22T09:04:30.220Z,-0.80
2019-01-22T09:07:39.871Z,-0.30
2019-01-22T09:11:12.176Z,0.00
2019-01-22T09:17:56.582Z,1.10
2019-01-22T09:28:48.709Z,0.70
2019-01-22T09:32:13.235Z,0.60
2019-01-22T09:35:03.683Z,0.60
2019-01-22T09:37:52.694Z,0.80
2019-01-22T09:40:41.630Z,1.40
2019-01-22T09:43:29.812Z,2.10
2019-01-22T09:46:17.813Z,2.60
2019-01-22T09:49:05.766Z,2.60
2019-01-22T09:51:53.749Z,2.70
2019-01-22T09:54:41.789Z,2.50
2019-01-22T09:57:29.776Z,2.30
2019-01-22T10:00:17.765Z,2.30
2019-01-22T10:03:05.783Z,2.20
2019-01-22T10:05:47.038Z,2.30
2019-01-22T10:08:28.426Z,2.40
2019-01-22T10:11:10.122Z,2.80
2019-01-22T10:13:51.631Z,3.10
2019-01-22T10:16:33.571Z,3.10
2019-01-22T10:19:15.555Z,3.00
2019-01-22T10:24:45.494Z,3.40
2019-01-22T10:27:26.917Z,3.30
2019-01-22T10:30:08.817Z,3.60
2019-01-22T10:32:51.265Z,3.70
2019-01-22T10:35:40.224Z,3.90
2019-01-22T10:38:29.219Z,3.60
2019-01-22T10:41:37.559Z,3.80
2019-01-22T10:44:26.684Z,3.80
2019-01-22T10:47:15.659Z,3.90
2019-01-22T10:50:24.025Z,4.10
2019-01-22T10:53:13.105Z,3.90
2019-01-22T10:56:02.044Z,3.80
2019-01-22T10:58:50.931Z,4.30
2019-01-22T11:01:40.786Z,4.20
2019-01-22T11:04:35.504Z,4.20
2019-01-22T11:07:24.399Z,4.00
2019-01-22T11:10:13.602Z,3.80
2019-01-22T11:13:02.699Z,3.90
2019-01-22T11:15:51.797Z,3.90
2019-01-22T11:18:40.696Z,3.80
2019-01-22T11:21:29.651Z,3.70
2019-01-22T11:24:18.666Z,3.90
2019-01-22T11:27:26.928Z,3.90
2019-01-22T11:30:35.430Z,3.80
2019-01-22T11:36:33.909Z,4.10
2019-01-22T11:39:22.871Z,4.30
2019-01-22T11:42:11.867Z,4.30
2019-01-22T11:44:54.424Z,4.30
2019-01-22T11:47:43.421Z,4.10
2019-01-22T11:50:32.420Z,4.00
2019-01-22T11:57:20.563Z,3.70
2019-01-22T12:00:46.514Z,3.70
2019-01-22T12:03:27.293Z,3.70
2019-01-22T12:06:16.391Z,4.10
2019-01-22T12:09:25.964Z,4.10
2019-01-22T12:12:14.664Z,4.20
2019-01-22T12:15:25.236Z,4.30
2019-01-22T12:18:14.227Z,4.50
2019-01-22T12:21:21.107Z,4.70
2019-01-22T12:24:10.115Z,4.90
2019-01-22T12:26:59.184Z,4.90
2019-01-22T12:29:48.087Z,4.90
2019-01-22T12:32:36.951Z,5.20
2019-01-22T12:35:25.862Z,5.10
2019-01-22T12:38:14.867Z,4.90
2019-01-22T12:41:21.443Z,4.70
2019-01-22T12:47:44.960Z,4.40
2019-01-22T12:50:33.962Z,4.00
2019-01-22T12:53:24.524Z,3.60
2019-01-22T12:56:13.452Z,3.40
2019-01-22T12:59:02.453Z,3.20
2019-01-22T13:01:51.457Z,3.00
2019-01-22T13:04:35.391Z,2.80
2019-01-22T13:07:24.372Z,2.70
2019-01-22T13:10:14.926Z,2.60
2019-01-22T13:13:04.431Z,2.50
2019-01-22T13:15:54.984Z,2.40
2019-01-22T13:19:03.351Z,2.40
2019-01-22T13:21:52.446Z,2.40
2019-01-22T13:24:43.015Z,2.30
2019-01-22T13:30:42.293Z,2.30
2019-01-22T13:33:32.834Z,2.20
2019-01-22T13:36:21.762Z,2.10
2019-01-22T13:39:30.094Z,2.00
2019-01-22T13:42:18.931Z,1.90
2019-01-22T13:45:28.598Z,1.80
2019-01-22T13:48:17.583Z,1.70
2019-01-22T13:51:08.086Z,1.70
2019-01-22T13:53:57.075Z,1.60
2019-01-22T13:57:05.414Z,1.50
2019-01-22T13:59:54.343Z,1.50
2019-01-22T14:03:02.715Z,1.40
2019-01-22T14:05:45.656Z,1.40
2019-01-22T14:08:34.614Z,1.30
2019-01-22T14:11:23.774Z,1.20
2019-01-22T14:14:12.819Z,1.20
2019-01-22T14:17:01.824Z,1.20
2019-01-22T14:19:50.667Z,1.10
2019-01-22T14:22:39.786Z,1.10
2019-01-22T14:25:28.807Z,1.00
2019-01-22T14:28:37.091Z,1.00
2019-01-22T14:31:26.042Z,0.90
2019-01-22T14:34:14.991Z,0.80
2019-01-22T14:37:35.251Z,0.80
2019-01-22T14:41:10.356Z,0.70
2019-01-22T14:43:59.235Z,0.60
2019-01-22T14:46:49.815Z,0.50
2019-01-22T14:49:40.340Z,0.40
2019-01-22T14:56:07.472Z,0.40
2019-01-22T14:58:56.373Z,0.30
2019-01-22T15:01:45.678Z,0.30
2019-01-22T15:04:28.182Z,0.20
2019-01-22T15:07:17.117Z,0.20
2019-01-22T15:10:25.487Z,0.10
2019-01-22T15:13:14.479Z,0.00
2019-01-22T15:16:03.468Z,0.00
2019-01-22T15:19:37.941Z,-0.10
2019-01-22T15:22:26.867Z,-0.10
2019-01-22T15:25:15.875Z,-0.20
2019-01-22T15:28:04.795Z,-0.20
2019-01-22T15:30:53.702Z,-0.20
2019-01-22T15:33:42.650Z,-0.20
2019-01-22T15:36:31.701Z,-0.30
2019-01-22T15:39:20.648Z,-0.30
2019-01-22T15:42:21.093Z,-0.40
2019-01-22T15:45:19.650Z,-0.40
2019-01-22T15:48:10.147Z,-0.50
2019-01-22T15:51:18.641Z,-0.50
2019-01-22T15:54:09.251Z,-0.60
2019-01-22T15:56:58.118Z,-0.70
2019-01-22T16:00:50.345Z,-0.70
2019-01-22T16:03:39.196Z,-0.60
2019-01-22T16:06:22.582Z,-0.60
2019-01-22T16:09:11.567Z,-0.60
2019-01-22T16:12:00.505Z,-0.70
2019-01-22T16:14:49.367Z,-0.70
2019-01-22T16:17:38.391Z,-0.70
2019-01-22T16:20:27.466Z,-0.70
2019-01-22T16:23:16.496Z,-0.70
2019-01-22T16:29:27.192Z,-0.80
2019-01-22T16:32:35.499Z,-0.90
2019-01-22T16:35:24.808Z,-0.90
2019-01-22T16:38:13.854Z,-0.90
2019-01-22T16:41:22.128Z,-0.90
2019-01-22T16:44:12.786Z,-1.00
2019-01-22T16:47:01.726Z,-1.00
2019-01-22T16:49:50.727Z,-1.00
2019-01-22T16:52:39.814Z,-1.00
2019-01-22T16:55:48.002Z,-1.10
2019-01-22T16:58:36.992Z,-1.10
2019-01-22T17:01:25.911Z,-1.20
2019-01-22T17:04:27.703Z,-1.20
2019-01-22T17:07:16.873Z,-1.20
2019-01-22T17:10:26.592Z,-1.30
2019-01-22T17:13:15.662Z,-1.30
2019-01-22T17:16:04.770Z,-1.30
2019-01-22T17:19:13.175Z,-1.30
2019-01-22T17:22:02.118Z,-1.30
2019-01-22T17:24:51.078Z,-1.40
2019-01-22T17:27:40.421Z,-1.40
2019-01-22T17:30:31.022Z,-1.40
2019-01-22T17:36:39.343Z,-1.40
2019-01-22T17:39:28.291Z,-1.50
2019-01-22T17:42:17.293Z,-1.50
2019-01-22T17:45:25.783Z,-1.50
2019-01-22T17:51:42.330Z,-1.50
2019-01-22T17:54:50.717Z,-1.60
2019-01-22T17:57:41.388Z,-1.60
2019-01-22T18:03:33.493Z,-1.60
2019-01-22T18:06:22.590Z,-1.60
2019-01-22T18:09:13.082Z,-1.60
2019-01-22T18:12:02.319Z,-1.70
2019-01-22T18:14:51.247Z,-1.60
2019-01-22T18:17:40.188Z,-1.70
2019-01-22T18:20:29.120Z,-1.70
2019-01-22T18:23:19.868Z,-1.60
2019-01-22T18:26:08.917Z,-1.60
2019-01-22T18:28:57.761Z,-1.70
2019-01-22T18:31:46.786Z,-1.70
2019-01-22T18:34:37.327Z,-1.70
2019-01-22T18:40:26.894Z,-1.70
2019-01-22T18:43:15.934Z,-1.70
2019-01-22T18:46:06.566Z,-1.70
2019-01-22T18:49:12.367Z,-1.70
2019-01-22T18:52:01.536Z,-1.60
2019-01-22T18:54:50.742Z,-1.60
2019-01-22T18:57:39.746Z,-1.70
2019-01-22T19:00:28.755Z,-1.60
2019-01-22T19:03:17.964Z,-1.60
2019-01-22T19:06:00.234Z,-1.60
2019-01-22T19:08:49.397Z,-1.70
2019-01-22T19:11:39.963Z,-1.70
2019-01-22T19:14:48.373Z,-1.70
2019-01-22T19:17:37.465Z,-1.80
2019-01-22T19:20:26.378Z,-1.80
2019-01-22T19:23:15.404Z,-1.80
2019-01-22T19:26:04.346Z,-1.80
2019-01-22T19:28:53.402Z,-1.80
2019-01-22T19:31:42.387Z,-1.80
2019-01-22T19:34:33.091Z,-1.80
2019-01-22T19:37:21.978Z,-1.70
2019-01-22T19:40:33.481Z,-1.80
2019-01-22T19:43:22.526Z,-1.80
2019-01-22T19:46:11.838Z,-1.70
2019-01-22T19:49:00.811Z,-1.70
2019-01-22T19:58:12.058Z,-1.60
2019-01-22T20:01:01.424Z,-1.60
2019-01-22T20:03:50.427Z,-1.60
2019-01-22T20:06:33.485Z,-1.50
2019-01-22T20:09:22.594Z,-1.50
2019-01-22T20:15:34.802Z,-1.50
2019-01-22T20:18:25.442Z,-1.50
2019-01-22T20:21:14.588Z,-1.50
2019-01-22T20:24:03.466Z,-1.60
2019-01-22T20:26:52.582Z,-1.60
2019-01-22T20:29:43.227Z,-1.60
2019-01-22T20:38:33.360Z,-1.60
2019-01-22T20:41:41.790Z,-1.60
2019-01-22T20:44:30.760Z,-1.60
2019-01-22T20:47:19.881Z,-1.60
2019-01-22T20:50:29.554Z,-1.60
2019-01-22T20:53:18.716Z,-1.60
2019-01-22T20:56:07.731Z,-1.60
2019-01-22T20:58:56.596Z,-1.50
2019-01-22T21:01:45.686Z,-1.60
2019-01-22T21:04:28.328Z,-1.50
2019-01-22T21:07:17.378Z,-1.60
2019-01-22T21:13:15.621Z,-1.50
2019-01-22T21:16:04.655Z,-1.50
2019-01-22T21:22:01.854Z,-1.50
2019-01-22T21:24:51.004Z,-1.50
2019-01-22T21:27:40.083Z,-1.50
2019-01-22T21:30:49.742Z,-1.50
2019-01-22T21:33:38.928Z,-1.50
2019-01-22T21:40:23.849Z,-1.50
2019-01-22T21:43:12.864Z,-1.50
2019-01-22T21:46:01.766Z,-1.40
2019-01-22T21:48:52.631Z,-1.40
2019-01-22T21:51:41.631Z,-1.40
2019-01-22T21:54:30.520Z,-1.40
2019-01-22T21:57:38.938Z,-1.40
2019-01-22T22:00:47.322Z,-1.40
2019-01-22T22:03:36.431Z,-1.40
2019-01-22T22:06:21.036Z,-1.30
2019-01-22T22:09:10.143Z,-1.30
2019-01-22T22:11:59.128Z,-1.30
2019-01-22T22:14:48.078Z,-1.30
2019-01-22T22:17:50.663Z,-1.40
2019-01-22T22:20:47.251Z,-1.30
2019-01-22T22:23:36.291Z,-1.30
2019-01-22T22:26:25.140Z,-1.30
2019-01-22T22:32:36.354Z,-1.30
2019-01-22T22:35:25.416Z,-1.30
2019-01-22T22:38:33.710Z,-1.30
2019-01-22T22:41:34.547Z,-1.30
2019-01-22T22:44:32.680Z,-1.30
2019-01-22T22:47:21.663Z,-1.30
2019-01-22T22:50:31.344Z,-1.30
2019-01-22T22:53:21.823Z,-1.30
2019-01-22T22:56:30.136Z,-1.30
2019-01-22T22:59:19.031Z,-1.30
2019-01-22T23:02:08.111Z,-1.30
2019-01-22T23:04:51.020Z,-1.30
2019-01-22T23:07:20.763Z,-1.30
2019-01-22T23:10:11.345Z,-1.30
2019-01-22T23:13:00.346Z,-1.20
2019-01-22T23:15:49.495Z,-1.30
2019-01-22T23:18:38.366Z,-1.20
2019-01-22T23:21:27.353Z,-1.20
2019-01-22T23:24:16.290Z,-1.20
2019-01-22T23:27:05.230Z,-1.20
2019-01-22T23:29:55.723Z,-1.20
2019-01-22T23:33:04.083Z,-1.20
2019-01-22T23:36:12.459Z,-1.20
2019-01-22T23:39:01.477Z,-1.20
2019-01-22T23:41:52.123Z,-1.10
2019-01-22T23:44:41.112Z,-1.20
2019-01-22T23:47:30.042Z,-1.20
2019-01-22T23:50:18.886Z,-1.10
2019-01-22T23:53:07.850Z,-1.10
2019-01-22T23:56:16.150Z,-1.10
2019-01-22T23:59:05.025Z,-1.10
